createdAt,value
2023-07-17T00:00:45.115Z,81.70
2023-07-17T00:03:12.712Z,81.40
2023-07-17T00:05:39.531Z,81.80
2023-07-17T00:08:07.459Z,81.80
2023-07-17T00:10:34.144Z,84.70
2023-07-17T00:13:00.936Z,85.60
2023-07-17T00:15:27.692Z,85.70
2023-07-17T00:17:54.551Z,86.00
2023-07-17T00:20:21.988Z,86.80
2023-07-17T00:22:48.761Z,86.90
2023-07-17T00:25:15.569Z,86.40
2023-07-17T00:27:42.261Z,86.60
2023-07-17T00:30:09.734Z,86.50
2023-07-17T00:32:36.561Z,86.40
2023-07-17T00:35:03.412Z,86.50
2023-07-17T00:37:30.147Z,87.50
2023-07-17T00:39:56.971Z,87.10
2023-07-17T00:42:23.779Z,86.40
2023-07-17T00:44:50.422Z,88.10
2023-07-17T00:47:17.236Z,89.10
2023-07-17T00:49:44.107Z,89.60
2023-07-17T00:52:12.481Z,89.90
2023-07-17T00:54:42.408Z,90.30
2023-07-17T00:57:10.658Z,90.80
2023-07-17T00:59:37.443Z,91.30
2023-07-17T01:02:04.541Z,91.10
2023-07-17T01:04:31.280Z,91.90
2023-07-17T01:06:57.980Z,92.40
2023-07-17T01:09:25.348Z,92.20
2023-07-17T01:11:52.105Z,92.00
2023-07-17T01:14:20.001Z,91.80
2023-07-17T01:16:50.331Z,91.40
2023-07-17T01:19:17.829Z,91.10
2023-07-17T01:21:52.967Z,91.20
2023-07-17T01:24:20.377Z,91.20
2023-07-17T01:26:47.191Z,90.90
2023-07-17T01:29:13.980Z,90.60
2023-07-17T01:31:41.377Z,90.60
2023-07-17T01:34:08.351Z,90.60
2023-07-17T01:36:35.156Z,90.50
2023-07-17T01:39:01.955Z,90.00
2023-07-17T01:41:28.642Z,90.00
2023-07-17T01:43:55.378Z,90.20
2023-07-17T01:46:22.640Z,90.50
2023-07-17T01:48:49.561Z,90.30
2023-07-17T01:51:16.588Z,89.40
2023-07-17T01:53:43.658Z,90.10
2023-07-17T01:56:11.547Z,91.30
2023-07-17T01:58:38.245Z,91.60
2023-07-17T02:01:05.014Z,91.50
2023-07-17T02:03:32.688Z,91.00
2023-07-17T02:05:59.442Z,91.10
2023-07-17T02:08:26.475Z,90.90
2023-07-17T02:10:53.404Z,90.80
2023-07-17T02:13:20.336Z,90.70
2023-07-17T02:15:47.313Z,90.60
2023-07-17T02:18:14.187Z,90.60
2023-07-17T02:20:41.112Z,90.70
2023-07-17T02:23:08.112Z,90.80
2023-07-17T02:25:35.296Z,90.60
2023-07-17T02:28:02.135Z,90.60
2023-07-17T02:30:28.916Z,90.60
2023-07-17T02:32:55.679Z,90.50
2023-07-17T02:35:22.380Z,90.50
2023-07-17T02:37:49.045Z,90.70
2023-07-17T02:40:17.000Z,92.30
2023-07-17T02:42:43.805Z,93.80
2023-07-17T02:45:11.129Z,94.40
2023-07-17T02:47:37.854Z,94.30
2023-07-17T02:50:08.289Z,95.20
2023-07-17T02:52:36.152Z,95.40
2023-07-17T02:55:05.369Z,95.40
2023-07-17T02:57:35.945Z,95.30
2023-07-17T03:00:09.241Z,94.90
2023-07-17T03:02:36.773Z,96.00
2023-07-17T03:05:09.562Z,95.30
2023-07-17T03:07:39.441Z,95.70
2023-07-17T03:10:07.159Z,95.90
2023-07-17T03:12:34.529Z,95.70
2023-07-17T03:15:01.471Z,95.90
2023-07-17T03:17:28.811Z,95.80
2023-07-17T03:19:55.585Z,95.80
2023-07-17T03:22:22.304Z,96.20
2023-07-17T03:24:49.163Z,95.90
2023-07-17T03:27:15.809Z,96.70
2023-07-17T03:29:42.493Z,97.80
2023-07-17T03:32:09.595Z,97.80
2023-07-17T03:34:36.288Z,96.90
2023-07-17T03:37:04.174Z,96.80
2023-07-17T03:39:30.974Z,96.90
2023-07-17T03:41:57.657Z,96.80
2023-07-17T03:44:24.365Z,96.60
2023-07-17T03:46:51.125Z,96.20
2023-07-17T03:49:18.028Z,96.00
2023-07-17T03:51:45.054Z,96.50
2023-07-17T03:54:11.795Z,97.00
2023-07-17T03:56:40.588Z,96.90
2023-07-17T03:59:07.593Z,97.50
2023-07-17T04:01:34.370Z,97.80
2023-07-17T04:04:01.141Z,98.00
2023-07-17T04:06:27.883Z,98.20
2023-07-17T04:08:54.582Z,98.20
2023-07-17T04:11:21.427Z,98.00
2023-07-17T04:13:48.175Z,97.90
2023-07-17T04:16:16.271Z,97.90
2023-07-17T04:18:42.989Z,97.90
2023-07-17T04:21:09.676Z,98.20
2023-07-17T04:23:36.364Z,98.30
2023-07-17T04:26:03.064Z,97.90
2023-07-17T04:28:29.862Z,97.20
2023-07-17T04:30:56.611Z,97.10
2023-07-17T04:33:23.418Z,97.30
2023-07-17T04:35:50.110Z,96.70
2023-07-17T04:38:16.780Z,96.30
2023-07-17T04:40:43.563Z,96.10
2023-07-17T04:43:10.760Z,96.10
2023-07-17T04:45:45.080Z,95.90
2023-07-17T04:48:11.839Z,95.60
2023-07-17T04:50:38.592Z,95.70
2023-07-17T04:53:05.320Z,95.40
2023-07-17T04:55:32.106Z,95.30
2023-07-17T04:57:58.836Z,95.30
2023-07-17T05:00:25.527Z,95.70
2023-07-17T05:02:52.353Z,95.90
2023-07-17T05:05:19.114Z,96.10
2023-07-17T05:07:45.857Z,96.30
2023-07-17T05:10:15.076Z,96.20
2023-07-17T05:12:42.180Z,96.30
2023-07-17T05:15:09.132Z,96.40
2023-07-17T05:17:36.401Z,97.00
2023-07-17T05:20:06.093Z,97.80
2023-07-17T05:22:33.090Z,97.60
2023-07-17T05:25:00.657Z,97.30
2023-07-17T05:27:27.405Z,96.40
2023-07-17T05:29:54.171Z,97.00
2023-07-17T05:32:20.921Z,97.30
2023-07-17T05:34:47.854Z,96.80
2023-07-17T05:37:15.592Z,96.80
2023-07-17T05:39:42.287Z,96.50
2023-07-17T05:42:09.069Z,95.80
2023-07-17T05:44:35.739Z,95.20
2023-07-17T05:47:02.471Z,95.30
2023-07-17T05:49:29.386Z,94.10
2023-07-17T05:51:56.934Z,92.60
2023-07-17T05:54:23.767Z,91.90
2023-07-17T05:56:50.479Z,91.50
2023-07-17T05:59:17.134Z,91.10
2023-07-17T06:01:43.801Z,90.80
2023-07-17T06:04:10.635Z,90.90
2023-07-17T06:06:37.366Z,90.90
2023-07-17T06:09:04.500Z,90.40
2023-07-17T06:11:31.256Z,90.10
2023-07-17T06:13:58.070Z,88.90
2023-07-17T06:16:24.864Z,88.00
2023-07-17T06:18:51.648Z,88.30
2023-07-17T06:21:18.548Z,88.00
2023-07-17T06:23:45.661Z,86.60
2023-07-17T06:26:12.353Z,86.10
2023-07-17T06:28:39.146Z,82.80
2023-07-17T06:31:06.399Z,81.90
2023-07-17T06:33:35.874Z,82.00
2023-07-17T06:36:03.819Z,80.90
2023-07-17T06:38:30.596Z,80.80
2023-07-17T06:40:57.302Z,80.60
2023-07-17T06:43:24.096Z,79.60
2023-07-17T06:45:50.898Z,78.90
2023-07-17T06:48:17.758Z,77.10
2023-07-17T06:50:46.626Z,76.30
2023-07-17T06:53:13.415Z,76.20
2023-07-17T06:55:40.113Z,74.70
2023-07-17T06:58:07.072Z,74.50
2023-07-17T07:00:33.772Z,73.50
2023-07-17T07:03:00.717Z,73.00
2023-07-17T07:05:27.694Z,72.00
2023-07-17T07:07:54.589Z,69.40
2023-07-17T07:10:21.389Z,70.10
2023-07-17T07:12:48.057Z,68.20
2023-07-17T07:15:14.817Z,67.40
2023-07-17T07:17:41.506Z,67.50
2023-07-17T07:20:09.408Z,67.30
2023-07-17T07:22:36.163Z,66.10
2023-07-17T07:25:03.542Z,65.40
2023-07-17T07:27:32.261Z,64.50
2023-07-17T07:29:59.169Z,63.00
2023-07-17T07:32:26.077Z,63.70
2023-07-17T07:34:52.908Z,62.20
2023-07-17T07:37:19.677Z,63.70
2023-07-17T07:39:46.402Z,64.40
2023-07-17T07:42:13.087Z,63.30
2023-07-17T07:44:39.780Z,62.30
2023-07-17T07:47:06.660Z,60.80
2023-07-17T07:49:33.493Z,60.80
2023-07-17T07:52:00.207Z,59.10
2023-07-17T07:54:26.944Z,55.30
2023-07-17T07:56:53.726Z,55.10
2023-07-17T07:59:20.521Z,54.60
2023-07-17T08:01:47.412Z,54.40
2023-07-17T08:04:14.352Z,54.00
2023-07-17T08:06:41.068Z,51.90
2023-07-17T08:09:07.845Z,52.60
2023-07-17T08:11:34.577Z,51.70
2023-07-17T08:14:01.328Z,51.50
2023-07-17T08:16:29.421Z,52.10
2023-07-17T08:18:56.185Z,52.10
2023-07-17T08:21:23.042Z,52.50
2023-07-17T08:23:49.810Z,52.10
2023-07-17T08:26:16.524Z,51.40
2023-07-17T08:28:43.424Z,50.30
2023-07-17T08:31:10.134Z,51.70
2023-07-17T08:33:37.643Z,50.90
2023-07-17T08:36:04.969Z,51.30
2023-07-17T08:38:31.644Z,51.10
2023-07-17T08:41:00.374Z,49.60
2023-07-17T08:43:28.621Z,50.00
2023-07-17T08:45:56.673Z,48.40
2023-07-17T08:48:26.435Z,47.80
2023-07-17T08:50:54.597Z,48.50
2023-07-17T08:53:23.096Z,48.20
2023-07-17T08:55:54.098Z,48.00
2023-07-17T08:58:21.843Z,47.60
2023-07-17T09:00:50.243Z,47.90
2023-07-17T09:03:17.430Z,47.00
2023-07-17T09:05:44.661Z,46.90
2023-07-17T09:08:12.717Z,47.80
2023-07-17T09:10:40.261Z,47.30
2023-07-17T09:13:07.142Z,47.10
2023-07-17T09:15:34.667Z,47.20
2023-07-17T09:18:01.815Z,46.60
2023-07-17T09:20:28.707Z,45.90
2023-07-17T09:22:57.469Z,46.10
2023-07-17T09:25:28.600Z,45.60
2023-07-17T09:27:55.737Z,45.70
2023-07-17T09:30:25.343Z,45.10
2023-07-17T09:32:52.463Z,45.40
2023-07-17T09:35:20.857Z,47.10
2023-07-17T09:37:47.858Z,45.50
2023-07-17T09:40:18.316Z,46.20
2023-07-17T09:42:51.634Z,45.40
2023-07-17T09:45:20.282Z,46.20
2023-07-17T09:47:50.679Z,46.80
2023-07-17T09:50:19.441Z,46.50
2023-07-17T09:52:46.407Z,46.70
2023-07-17T09:55:14.551Z,46.20
2023-07-17T09:57:45.984Z,45.70
2023-07-17T10:00:19.504Z,46.20
2023-07-17T10:03:21.209Z,46.60
2023-07-17T10:05:48.965Z,46.90
2023-07-17T10:08:18.800Z,47.20
2023-07-17T10:10:45.526Z,46.60
2023-07-17T10:13:12.756Z,45.90
2023-07-17T10:15:39.920Z,46.50
2023-07-17T10:18:12.937Z,44.80
2023-07-17T10:20:40.645Z,44.70
2023-07-17T10:23:23.840Z,45.10
2023-07-17T10:25:51.017Z,45.30
2023-07-17T10:28:31.388Z,44.50
2023-07-17T10:31:08.637Z,44.70
2023-07-17T10:33:39.347Z,44.80
2023-07-17T10:36:06.364Z,45.20
2023-07-17T10:38:40.158Z,43.60
2023-07-17T10:41:16.200Z,44.10
2023-07-17T10:44:10.054Z,43.40
2023-07-17T10:46:40.445Z,44.40
2023-07-17T10:49:12.369Z,44.50
2023-07-17T10:51:51.522Z,43.80
2023-07-17T10:54:19.353Z,43.80
2023-07-17T10:56:48.259Z,44.00
2023-07-17T10:59:17.441Z,43.30
2023-07-17T11:01:45.596Z,44.00
2023-07-17T11:04:12.568Z,42.30
2023-07-17T11:06:39.366Z,43.10
2023-07-17T11:09:06.128Z,42.80
2023-07-17T11:11:33.402Z,42.40
2023-07-17T11:14:01.297Z,43.70
2023-07-17T11:16:28.124Z,43.10
2023-07-17T11:18:56.318Z,44.20
2023-07-17T11:21:25.710Z,43.80
2023-07-17T11:23:52.490Z,42.50
2023-07-17T11:26:26.729Z,43.50
2023-07-17T11:28:55.545Z,42.20
2023-07-17T11:31:25.803Z,42.20
2023-07-17T11:34:00.658Z,42.70
2023-07-17T11:36:43.518Z,43.60
2023-07-17T11:39:11.822Z,44.30
2023-07-17T11:41:46.399Z,42.30
2023-07-17T11:44:25.756Z,42.90
2023-07-17T11:47:00.832Z,43.40
2023-07-17T11:49:29.144Z,43.20
2023-07-17T11:51:56.865Z,42.50
2023-07-17T11:54:29.709Z,42.50
2023-07-17T11:57:04.012Z,42.40
2023-07-17T11:59:32.329Z,43.20
2023-07-17T12:02:01.474Z,42.70
2023-07-17T12:04:29.945Z,42.10
2023-07-17T12:06:56.743Z,43.00
2023-07-17T12:09:24.294Z,43.80
2023-07-17T12:11:51.206Z,45.00
2023-07-17T12:14:19.278Z,43.70
2023-07-17T12:16:47.230Z,43.00
2023-07-17T12:19:14.152Z,44.10
2023-07-17T12:21:42.349Z,43.70
2023-07-17T12:24:09.739Z,44.50
2023-07-17T12:26:37.083Z,42.40
2023-07-17T12:29:04.542Z,43.40
2023-07-17T12:31:31.986Z,43.60
2023-07-17T12:33:58.970Z,43.00
2023-07-17T12:36:25.808Z,43.20
2023-07-17T12:38:53.546Z,43.00
2023-07-17T12:41:21.125Z,43.40
2023-07-17T12:43:48.445Z,43.20
2023-07-17T12:46:15.218Z,44.00
2023-07-17T12:48:42.252Z,44.20
2023-07-17T12:51:09.016Z,42.40
2023-07-17T12:53:35.817Z,43.10
2023-07-17T12:56:17.045Z,43.70
2023-07-17T12:58:46.652Z,43.10
2023-07-17T13:01:13.907Z,44.10
2023-07-17T13:03:40.785Z,43.90
2023-07-17T13:06:07.657Z,43.50
2023-07-17T13:08:34.358Z,45.30
2023-07-17T13:11:01.066Z,45.20
2023-07-17T13:13:27.834Z,45.20
2023-07-17T13:15:54.633Z,45.00
2023-07-17T13:18:21.513Z,45.10
2023-07-17T13:20:48.340Z,44.90
2023-07-17T13:23:15.157Z,44.60
2023-07-17T13:25:41.883Z,45.40
2023-07-17T13:28:08.605Z,44.30
2023-07-17T13:30:35.333Z,44.90
2023-07-17T13:33:02.075Z,44.80
2023-07-17T13:35:29.776Z,44.70
2023-07-17T13:37:56.528Z,44.80
2023-07-17T13:40:25.599Z,44.70
2023-07-17T13:42:52.355Z,45.30
2023-07-17T13:45:19.253Z,45.20
2023-07-17T13:47:46.010Z,45.00
2023-07-17T13:50:12.782Z,44.50
2023-07-17T13:52:40.102Z,45.00
2023-07-17T13:55:07.509Z,44.50
2023-07-17T13:57:34.244Z,44.60
2023-07-17T14:00:01.109Z,45.00
2023-07-17T14:02:28.177Z,44.30
2023-07-17T14:04:54.958Z,45.50
2023-07-17T14:07:21.712Z,45.20
2023-07-17T14:09:48.460Z,45.50
2023-07-17T14:12:15.270Z,45.90
2023-07-17T14:14:42.016Z,46.90
2023-07-17T14:17:08.824Z,46.30
2023-07-17T14:19:35.632Z,46.10
2023-07-17T14:22:02.324Z,46.70
2023-07-17T14:24:29.525Z,45.90
2023-07-17T14:26:56.770Z,46.60
2023-07-17T14:29:23.516Z,45.40
2023-07-17T14:31:50.274Z,45.30
2023-07-17T14:34:17.125Z,45.50
2023-07-17T14:36:43.876Z,46.30
2023-07-17T14:39:10.577Z,45.80
2023-07-17T14:41:37.598Z,45.40
2023-07-17T14:44:04.556Z,46.20
2023-07-17T14:46:31.627Z,45.90
2023-07-17T14:48:58.531Z,46.30
2023-07-17T14:51:25.382Z,46.20
2023-07-17T14:53:53.097Z,45.80
2023-07-17T14:56:20.446Z,46.40
2023-07-17T14:58:47.456Z,46.30
2023-07-17T15:01:14.244Z,45.70
2023-07-17T15:03:41.161Z,45.90
2023-07-17T15:06:07.875Z,46.00
2023-07-17T15:08:34.656Z,47.60
2023-07-17T15:11:01.532Z,47.90
2023-07-17T15:13:29.367Z,49.10
2023-07-17T15:15:56.516Z,48.80
2023-07-17T15:18:23.344Z,48.90
2023-07-17T15:20:50.252Z,49.20
2023-07-17T15:23:17.078Z,48.90
2023-07-17T15:25:43.931Z,49.30
2023-07-17T15:28:10.662Z,48.90
2023-07-17T15:30:37.454Z,49.20
2023-07-17T15:33:04.294Z,50.60
2023-07-17T15:35:31.136Z,50.70
2023-07-17T15:37:58.052Z,51.40
2023-07-17T15:40:24.793Z,49.60
2023-07-17T15:42:51.613Z,49.50
2023-07-17T15:45:23.351Z,49.50
2023-07-17T15:47:51.223Z,49.80
2023-07-17T15:50:18.167Z,50.50
2023-07-17T15:52:45.559Z,49.60
2023-07-17T15:55:12.353Z,49.90
2023-07-17T15:57:39.683Z,49.70
2023-07-17T16:00:07.366Z,50.40
2023-07-17T16:02:34.424Z,49.60
2023-07-17T16:05:01.623Z,49.70
2023-07-17T16:07:28.645Z,51.10
2023-07-17T16:09:55.390Z,50.30
2023-07-17T16:12:24.401Z,49.70
2023-07-17T16:14:51.577Z,50.20
2023-07-17T16:17:18.608Z,49.50
2023-07-17T16:19:47.636Z,48.70
2023-07-17T16:22:16.436Z,48.90
2023-07-17T16:24:43.171Z,48.80
2023-07-17T16:27:10.018Z,48.70
2023-07-17T16:29:36.764Z,48.60
2023-07-17T16:32:03.621Z,48.30
2023-07-17T16:34:30.345Z,49.40
2023-07-17T16:36:57.044Z,49.00
2023-07-17T16:39:23.720Z,48.50
2023-07-17T16:41:50.495Z,48.50
2023-07-17T16:44:17.749Z,48.50
2023-07-17T16:46:44.607Z,48.80
2023-07-17T16:49:11.417Z,48.10
2023-07-17T16:51:38.191Z,48.80
2023-07-17T16:54:05.144Z,48.40
2023-07-17T16:56:31.977Z,48.10
2023-07-17T16:58:59.192Z,48.00
2023-07-17T17:01:26.241Z,47.60
2023-07-17T17:03:53.248Z,47.60
2023-07-17T17:06:20.381Z,48.00
2023-07-17T17:08:47.433Z,47.90
2023-07-17T17:11:14.188Z,47.80
2023-07-17T17:13:40.889Z,48.00
2023-07-17T17:16:07.604Z,48.00
2023-07-17T17:18:34.340Z,48.50
2023-07-17T17:21:01.014Z,48.80
2023-07-17T17:23:27.690Z,49.00
2023-07-17T17:25:54.415Z,48.50
2023-07-17T17:28:21.112Z,48.70
2023-07-17T17:30:47.827Z,48.80
2023-07-17T17:33:14.605Z,48.90
2023-07-17T17:35:41.277Z,49.20
2023-07-17T17:38:10.121Z,48.90
2023-07-17T17:40:39.732Z,48.90
2023-07-17T17:43:06.464Z,49.30
2023-07-17T17:45:33.259Z,49.10
2023-07-17T17:48:00.076Z,49.40
2023-07-17T17:50:26.876Z,49.60
2023-07-17T17:52:53.673Z,49.90
2023-07-17T17:55:20.451Z,50.20
2023-07-17T17:57:47.148Z,50.90
2023-07-17T18:00:14.310Z,50.70
2023-07-17T18:02:41.154Z,50.20
2023-07-17T18:05:08.431Z,49.60
2023-07-17T18:07:35.263Z,49.50
2023-07-17T18:10:02.121Z,49.60
2023-07-17T18:12:28.920Z,49.60
2023-07-17T18:14:56.164Z,49.30
2023-07-17T18:17:23.290Z,49.60
2023-07-17T18:19:50.072Z,49.40
2023-07-17T18:22:16.825Z,49.40
2023-07-17T18:24:43.800Z,49.80
2023-07-17T18:27:10.683Z,49.90
2023-07-17T18:29:37.467Z,50.20
2023-07-17T18:32:04.791Z,50.20
2023-07-17T18:34:32.014Z,50.00
2023-07-17T18:36:59.444Z,49.70
2023-07-17T18:39:28.658Z,49.30
2023-07-17T18:41:55.888Z,49.20
2023-07-17T18:44:22.648Z,48.90
2023-07-17T18:46:49.757Z,48.70
2023-07-17T18:49:16.701Z,48.90
2023-07-17T18:51:43.456Z,48.70
2023-07-17T18:54:10.241Z,48.50
2023-07-17T18:56:38.413Z,48.70
2023-07-17T18:59:19.893Z,48.70
2023-07-17T19:01:50.478Z,48.60
2023-07-17T19:04:17.245Z,48.50
2023-07-17T19:06:44.117Z,49.00
2023-07-17T19:09:10.944Z,48.70
2023-07-17T19:11:37.718Z,48.80
2023-07-17T19:14:04.568Z,48.70
2023-07-17T19:16:31.312Z,48.70
2023-07-17T19:18:58.092Z,49.10
2023-07-17T19:21:24.896Z,49.40
2023-07-17T19:23:51.854Z,49.60
2023-07-17T19:26:19.042Z,49.40
2023-07-17T19:28:46.286Z,49.40
2023-07-17T19:31:13.320Z,49.30
2023-07-17T19:33:40.202Z,49.50
2023-07-17T19:36:07.341Z,49.40
2023-07-17T19:38:34.117Z,49.70
2023-07-17T19:41:03.900Z,50.30
2023-07-17T19:43:30.872Z,50.30
2023-07-17T19:45:58.977Z,50.30
2023-07-17T19:48:26.024Z,50.50
2023-07-17T19:50:52.898Z,50.80
2023-07-17T19:53:20.915Z,50.80
2023-07-17T19:55:47.881Z,51.00
2023-07-17T19:58:15.497Z,51.20
2023-07-17T20:00:42.352Z,51.20
2023-07-17T20:03:09.168Z,51.40
2023-07-17T20:05:36.244Z,51.70
2023-07-17T20:08:06.455Z,52.50
2023-07-17T20:10:34.552Z,52.10
2023-07-17T20:13:01.443Z,52.00
2023-07-17T20:15:28.254Z,52.20
2023-07-17T20:17:55.166Z,52.10
2023-07-17T20:20:23.475Z,52.00
2023-07-17T20:22:50.347Z,52.20
2023-07-17T20:25:17.245Z,52.20
2023-07-17T20:27:44.475Z,52.30
2023-07-17T20:30:13.141Z,52.50
2023-07-17T20:32:40.811Z,52.50
2023-07-17T20:35:25.304Z,52.40
2023-07-17T20:37:53.905Z,52.50
2023-07-17T20:40:20.777Z,52.60
2023-07-17T20:42:50.588Z,52.50
2023-07-17T20:45:18.753Z,52.60
2023-07-17T20:47:47.871Z,52.60
2023-07-17T20:50:14.661Z,52.30
2023-07-17T20:52:44.749Z,52.50
2023-07-17T20:55:12.585Z,52.80
2023-07-17T20:57:39.413Z,53.20
2023-07-17T21:00:11.588Z,53.50
2023-07-17T21:02:39.148Z,53.60
2023-07-17T21:05:06.404Z,53.10
2023-07-17T21:07:33.886Z,52.90
2023-07-17T21:10:00.634Z,53.00
2023-07-17T21:12:27.442Z,53.50
2023-07-17T21:14:54.236Z,53.70
2023-07-17T21:17:21.168Z,54.10
2023-07-17T21:19:50.844Z,54.20
2023-07-17T21:22:18.248Z,54.20
2023-07-17T21:24:45.078Z,54.70
2023-07-17T21:27:11.775Z,55.00
2023-07-17T21:29:40.593Z,55.40
2023-07-17T21:32:07.980Z,55.20
2023-07-17T21:34:34.706Z,55.60
2023-07-17T21:37:01.499Z,55.90
2023-07-17T21:39:28.457Z,56.10
2023-07-17T21:41:55.316Z,56.20
2023-07-17T21:44:22.068Z,56.10
2023-07-17T21:46:48.940Z,56.10
2023-07-17T21:49:15.683Z,56.10
2023-07-17T21:51:42.350Z,55.90
2023-07-17T21:54:10.746Z,55.80
2023-07-17T21:56:37.621Z,56.00
2023-07-17T21:59:04.400Z,56.50
2023-07-17T22:01:31.227Z,56.80
2023-07-17T22:03:58.059Z,58.00
2023-07-17T22:06:24.815Z,58.40
2023-07-17T22:08:51.940Z,58.10
2023-07-17T22:11:18.785Z,58.40
2023-07-17T22:13:45.827Z,58.60
2023-07-17T22:16:14.442Z,58.80
2023-07-17T22:18:41.279Z,59.00
2023-07-17T22:21:08.151Z,58.90
2023-07-17T22:23:34.904Z,59.10
2023-07-17T22:26:01.611Z,59.70
2023-07-17T22:28:28.582Z,59.70
2023-07-17T22:30:55.291Z,59.60
2023-07-17T22:33:22.099Z,60.00
2023-07-17T22:35:48.839Z,60.10
2023-07-17T22:38:15.533Z,59.90
2023-07-17T22:40:42.478Z,60.00
2023-07-17T22:43:09.188Z,60.40
2023-07-17T22:45:35.906Z,60.80
2023-07-17T22:48:02.616Z,61.30
2023-07-17T22:50:29.364Z,61.60
2023-07-17T22:52:56.091Z,61.90
2023-07-17T22:55:22.810Z,62.00
2023-07-17T22:57:49.530Z,61.40
2023-07-17T23:00:16.700Z,61.80
2023-07-17T23:02:43.428Z,61.80
2023-07-17T23:05:11.086Z,61.20
2023-07-17T23:07:37.780Z,62.20
2023-07-17T23:10:06.054Z,62.00
2023-07-17T23:12:33.587Z,61.40
2023-07-17T23:15:00.508Z,61.40
2023-07-17T23:17:27.644Z,61.30
2023-07-17T23:19:55.462Z,61.70
2023-07-17T23:22:22.245Z,62.20
2023-07-17T23:24:48.880Z,62.40
2023-07-17T23:27:15.549Z,62.50
2023-07-17T23:29:42.290Z,62.60
2023-07-17T23:32:09.613Z,62.80
2023-07-17T23:34:40.755Z,63.50
2023-07-17T23:37:07.650Z,64.10
2023-07-17T23:39:34.352Z,65.10
2023-07-17T23:42:01.047Z,66.00
2023-07-17T23:44:27.767Z,67.10
2023-07-17T23:46:54.408Z,67.70
2023-07-17T23:49:21.333Z,67.40
2023-07-17T23:51:48.026Z,68.20
2023-07-17T23:54:14.743Z,68.50
2023-07-17T23:56:42.801Z,68.90
2023-07-17T23:59:09.537Z,69.40
